Time;durP1;ratioP1;P1;durP2;ratioP2;P2;SDS_P1;SDS_P2;PMS_P1;PMS_P2;Temp;Humidity;BMP_temperature;BMP_pressure;BME280_temperature;BME280_humidity;BME280_pressure;Samples;Min_cycle;Max_cycle;Signal;HPM_P1;HPM_P2
2023/03/08 00:02:18;;;;;;;2.03;1.63;;;3.30;80.70;;;6.08;55.75;99787.13;5118235;28;20192;-54
2023/03/08 00:04:45;;;;;;;3.33;1.80;;;3.30;80.70;;;6.07;56.52;99784.66;5118494;28;20218;-54
2023/03/08 00:07:12;;;;;;;3.63;2.40;;;3.30;80.70;;;6.05;56.89;99781.41;5117740;28;20209;-53
2023/03/08 00:09:40;;;;;;;2.97;1.93;;;3.20;80.80;;;6.03;56.39;99783.38;5112834;28;20251;-55
2023/03/08 00:12:09;;;;;;;2.73;2.00;;;3.20;80.80;;;6.02;56.42;99786.97;5101736;28;20186;-53
2023/03/08 00:14:36;;;;;;;4.10;1.77;;;3.20;81.10;;;6.01;56.75;99790.59;5114678;28;20685;-51
2023/03/08 00:17:03;;;;;;;5.17;2.20;;;3.20;81.10;;;6.01;57.10;99791.38;5117910;28;20747;-53
2023/03/08 00:19:31;;;;;;;3.50;1.80;;;3.20;81.30;;;6.02;57.22;99790.41;5122059;28;20304;-53
2023/03/08 00:21:58;;;;;;;4.23;2.50;;;3.20;82.00;;;6.01;56.31;99795.81;5117978;28;20248;-53
2023/03/08 00:24:25;;;;;;;4.03;2.27;;;3.20;81.30;;;6.01;56.05;99795.81;5106187;28;20220;-54
2023/03/08 00:26:53;;;;;;;5.57;2.27;;;3.20;81.60;;;6.00;56.98;99794.16;5098269;28;20197;-52
2023/03/08 00:29:20;;;;;;;2.13;1.97;;;3.20;81.70;;;5.99;56.34;99798.56;5097605;28;20197;-54
2023/03/08 00:31:47;;;;;;;2.30;2.10;;;3.20;81.60;;;5.98;56.72;99796.94;5097480;28;20203;-53
2023/03/08 00:34:15;;;;;;;4.27;1.97;;;3.20;81.80;;;5.98;56.38;99796.13;5097011;28;20881;-53
2023/03/08 00:36:42;;;;;;;3.00;2.03;;;3.10;81.80;;;5.97;56.84;99799.72;5097173;28;20194;-51
2023/03/08 00:39:10;;;;;;;2.90;2.70;;;3.10;81.60;;;5.95;57.45;99801.69;5112846;28;20214;-54
2023/03/08 00:41:37;;;;;;;3.63;2.10;;;3.10;81.80;;;5.93;57.14;99798.44;5117515;28;20193;-51
2023/03/08 00:44:06;;;;;;;3.13;2.07;;;3.10;81.60;;;5.91;57.84;99792.56;5117086;28;20220;-53
2023/03/08 00:46:33;;;;;;;4.47;2.77;;;3.10;81.70;;;5.91;56.60;99795.19;5117234;28;20703;-51
2023/03/08 00:49:00;;;;;;;3.17;2.03;;;3.10;81.70;;;5.91;57.19;99805.63;5118098;28;20582;-52
2023/03/08 00:51:27;;;;;;;4.63;2.17;;;3.10;82.00;;;5.92;57.50;99809.88;5117513;28;20212;-52
2023/03/08 00:53:54;;;;;;;3.50;2.27;;;3.10;81.90;;;5.88;56.91;99806.78;5096576;28;20561;-53
2023/03/08 00:56:21;;;;;;;2.70;2.30;;;3.10;81.90;;;5.91;57.99;99806.44;5096448;28;20207;-55
2023/03/08 00:58:48;;;;;;;3.87;2.13;;;3.00;82.20;;;5.95;57.77;99812.13;5096630;28;20205;-53
2023/03/08 01:01:18;;;;;;;3.33;2.77;;;3.10;82.30;;;5.95;57.26;99809.50;5096722;28;20246;-52
2023/03/08 01:03:45;;;;;;;2.50;2.30;;;3.10;82.30;;;5.96;57.45;99813.78;5096687;28;20204;-53
2023/03/08 01:06:14;;;;;;;2.23;2.10;;;3.10;82.20;;;5.96;58.11;99819.00;5099963;28;20208;-52
2023/03/08 01:08:42;;;;;;;3.00;2.37;;;3.10;82.30;;;5.97;58.13;99804.94;5116995;28;20197;-53
2023/03/08 01:11:17;;;;;;;4.57;2.27;;;3.10;82.10;;;5.94;57.88;99810.50;5117143;28;20190;-51
2023/03/08 01:13:44;;;;;;;4.80;2.30;;;3.20;82.20;;;5.93;57.86;99798.44;5116422;27;20655;-51
2023/03/08 01:16:18;;;;;;;2.37;1.83;;;3.20;82.20;;;5.97;58.10;99799.72;5116524;28;20198;-52
2023/03/08 01:18:46;;;;;;;5.10;1.83;;;3.20;82.30;;;5.99;57.74;99798.56;5116912;28;20177;-51
2023/03/08 01:21:13;;;;;;;3.43;2.50;;;3.20;82.00;;;5.98;57.67;99796.13;5104081;28;20198;-51
2023/03/08 01:23:40;;;;;;;3.33;2.40;;;3.30;82.10;;;5.93;57.79;99798.44;5095951;28;20219;-52
2023/03/08 01:26:12;;;;;;;3.57;2.00;;;3.30;81.50;;;5.89;57.37;99787.53;5096480;28;20570;-52
2023/03/08 01:28:40;;;;;;;2.37;2.17;;;3.30;81.30;;;5.88;57.40;99785.06;5096341;28;20181;-52
2023/03/08 01:31:11;;;;;;;2.43;2.00;;;3.30;81.30;;;5.90;57.47;99783.09;5096602;28;20197;-52
2023/03/08 01:33:40;;;;;;;3.10;2.03;;;3.30;81.40;;;5.97;57.43;99786.66;5096280;28;20204;-52
2023/03/08 01:36:11;;;;;;;2.10;1.90;;;3.30;81.80;;;6.03;58.09;99778.16;5096374;28;20188;-53
2023/03/08 01:38:38;;;;;;;2.73;1.83;;;3.30;81.80;;;6.05;57.16;99787.47;5096531;28;20189;-53
2023/03/08 01:41:07;;;;;;;3.23;2.13;;;3.30;81.50;;;6.06;57.22;99780.44;5096054;28;20205;-53
2023/03/08 01:43:37;;;;;;;1.93;1.60;;;3.40;81.60;;;6.09;57.11;99777.47;5095724;28;20214;-55
2023/03/08 01:46:14;;;;;;;2.33;1.97;;;3.40;81.80;;;6.08;57.69;99773.25;5095707;28;20222;-52
2023/03/08 01:48:49;;;;;;;2.63;1.70;;;3.40;80.90;;;5.98;56.91;99775.25;5100641;28;20187;-52
2023/03/08 01:51:27;;;;;;;3.67;2.10;;;3.40;80.40;;;5.86;57.38;99771.38;5116544;28;20638;-54
2023/03/08 01:53:58;;;;;;;2.53;2.33;;;3.40;80.10;;;5.74;57.96;99767.44;5115928;28;20211;-53
2023/03/08 01:56:26;;;;;;;3.50;2.20;;;3.30;80.40;;;5.52;57.73;99765.53;5116227;27;21303;-54
2023/03/08 01:58:54;;;;;;;3.00;2.07;;;3.10;80.70;;;5.46;58.48;99770.47;5116237;28;20203;-53
2023/03/08 02:01:21;;;;;;;4.23;2.20;;;3.10;80.70;;;5.45;58.51;99768.00;5115651;28;20195;-54
2023/03/08 02:03:51;;;;;;;3.33;2.07;;;3.00;81.30;;;5.43;57.79;99760.34;5115304;28;20244;-50
2023/03/08 02:06:20;;;;;;;3.77;2.27;;;3.00;81.40;;;5.35;59.78;99764.75;5114768;28;20216;-52
2023/03/08 02:08:47;;;;;;;4.30;2.37;;;2.90;81.50;;;5.34;59.12;99763.13;5115659;27;20665;-53
2023/03/08 02:11:18;;;;;;;4.67;2.47;;;2.90;81.50;;;5.36;58.79;99762.00;5115223;28;20547;-52
2023/03/08 02:13:45;;;;;;;5.57;2.30;;;2.90;82.30;;;5.34;59.06;99766.56;5115167;28;20723;-53
2023/03/08 02:16:15;;;;;;;3.63;1.97;;;2.80;82.00;;;5.41;58.79;99762.31;5115196;28;20199;-53
2023/03/08 02:18:55;;;;;;;4.30;1.90;;;2.90;82.80;;;5.51;59.02;99758.72;5115025;28;20201;-53
2023/03/08 02:21:23;;;;;;;4.17;2.50;;;2.90;83.50;;;5.61;59.32;99761.97;5115407;28;20191;-52
2023/03/08 02:23:52;;;;;;;3.53;2.10;;;3.00;83.00;;;5.66;57.96;99754.44;5115312;28;20212;-51
2023/03/08 02:26:19;;;;;;;3.13;2.37;;;3.00;82.30;;;5.67;58.14;99756.88;5115296;28;20211;-53
2023/03/08 02:28:48;;;;;;;3.40;2.53;;;3.00;82.20;;;5.61;58.13;99756.72;5113379;28;20197;-51
2023/03/08 02:31:15;;;;;;;4.30;2.67;;;3.00;81.70;;;5.56;58.24;99756.41;5115664;28;20192;-52
2023/03/08 02:33:42;;;;;;;4.77;2.77;;;3.00;81.80;;;5.56;59.37;99759.03;5115217;28;20216;-53
2023/03/08 02:36:09;;;;;;;3.43;3.00;;;3.00;82.30;;;5.62;59.43;99758.34;5114370;28;20192;-54
2023/03/08 02:38:36;;;;;;;3.87;3.10;;;3.00;82.30;;;5.63;58.62;99757.38;5115178;28;20192;-52
2023/03/08 02:41:05;;;;;;;5.50;3.20;;;3.00;82.00;;;5.60;58.50;99761.13;5114869;28;20216;-53
2023/03/08 02:43:32;;;;;;;4.17;3.77;;;3.00;81.70;;;5.55;58.11;99762.59;5099463;28;20225;-53
2023/03/08 02:45:59;;;;;;;5.10;3.43;;;3.00;81.70;;;5.51;58.80;99759.53;5094459;28;20601;-52
2023/03/08 02:48:26;;;;;;;5.67;4.17;;;3.00;81.50;;;5.47;58.67;99759.03;5094577;28;20589;-52
2023/03/08 02:50:53;;;;;;;6.03;4.03;;;2.90;81.60;;;5.41;58.69;99764.94;5094670;28;20194;-54
2023/03/08 02:53:20;;;;;;;5.13;4.40;;;2.90;81.80;;;5.28;59.00;99769.00;5094038;28;20209;-51
2023/03/08 02:55:47;;;;;;;5.73;4.47;;;2.80;82.30;;;5.20;60.22;99766.41;5095388;28;20545;-54
2023/03/08 02:58:15;;;;;;;6.03;4.60;;;2.80;82.80;;;5.17;59.60;99754.53;5113624;28;20611;-52
2023/03/08 03:00:42;;;;;;;6.00;4.80;;;2.80;83.00;;;5.20;59.72;99759.41;5114833;28;20196;-52
2023/03/08 03:03:10;;;;;;;5.20;4.70;;;2.70;83.10;;;5.28;59.59;99762.00;5114438;28;20209;-54
2023/03/08 03:05:41;;;;;;;9.00;5.27;;;2.70;82.90;;;5.38;59.84;99762.63;5114068;28;20216;-50
2023/03/08 03:08:09;;;;;;;6.17;5.37;;;2.70;83.30;;;5.45;58.94;99758.38;5115140;28;20540;-52
2023/03/08 03:10:40;;;;;;;6.17;4.80;;;2.70;83.80;;;5.51;59.88;99762.13;5111217;28;20200;-55
2023/03/08 03:13:08;;;;;;;6.90;5.63;;;2.80;83.80;;;5.60;58.59;99761.13;5099874;28;20242;-53
2023/03/08 03:15:38;;;;;;;6.27;5.20;;;2.80;83.70;;;5.67;58.06;99754.25;5111621;28;20212;-52
2023/03/08 03:18:05;;;;;;;5.93;5.37;;;2.80;83.70;;;5.74;59.03;99752.59;5094204;28;20201;-55
2023/03/08 03:20:33;;;;;;;8.33;5.97;;;2.90;83.70;;;5.83;58.51;99758.59;5094400;28;20200;-51
2023/03/08 03:23:00;;;;;;;6.33;5.47;;;2.90;84.20;;;5.88;59.33;99753.72;5093554;28;20222;-53
2023/03/08 03:25:27;;;;;;;10.67;5.97;;;3.00;83.80;;;5.97;59.18;99763.16;5101405;28;20208;-54
2023/03/08 03:27:55;;;;;;;8.47;5.77;;;3.10;84.00;;;6.01;57.91;99759.25;5114238;28;20318;-52
2023/03/08 03:30:22;;;;;;;7.20;6.13;;;3.10;83.70;;;6.08;59.35;99760.19;5114537;28;20278;-52
2023/03/08 03:32:50;;;;;;;6.97;6.27;;;3.20;83.50;;;6.11;58.51;99755.44;5114354;28;20213;-53
2023/03/08 03:35:24;;;;;;;8.63;6.57;;;3.30;83.40;;;6.02;58.76;99763.47;5109918;28;20189;-51
2023/03/08 03:37:51;;;;;;;8.03;6.03;;;3.30;82.90;;;6.06;58.53;99757.72;5105730;28;20183;-52
2023/03/08 03:40:18;;;;;;;10.90;7.07;;;3.30;83.30;;;6.11;58.43;99765.06;5114598;28;20200;-53
2023/03/08 03:42:47;;;;;;;8.80;6.63;;;3.40;82.90;;;6.06;57.75;99757.72;5114171;28;20611;-53
2023/03/08 03:45:14;;;;;;;11.10;7.30;;;3.40;82.50;;;6.05;58.49;99752.69;5113996;28;20198;-52
2023/03/08 03:47:41;;;;;;;7.03;6.33;;;3.40;82.30;;;6.08;58.28;99754.97;5115590;28;20184;-53
2023/03/08 03:50:11;;;;;;;8.37;6.53;;;3.30;82.30;;;6.07;58.33;99753.31;5115153;28;20204;-53
2023/03/08 03:52:37;;;;;;;13.37;6.83;;;3.30;82.20;;;6.09;58.05;99757.41;5113618;28;20546;-58
2023/03/08 03:55:07;;;;;;;9.70;7.43;;;3.30;82.60;;;6.04;57.73;99764.09;5110469;28;20190;-53
2023/03/08 03:57:34;;;;;;;12.23;7.70;;;3.30;82.50;;;6.00;58.00;99749.78;5094033;28;20264;-55
2023/03/08 04:00:01;;;;;;;8.13;6.63;;;3.30;82.40;;;6.00;58.85;99757.59;5094055;28;20201;-52
2023/03/08 04:02:28;;;;;;;7.20;5.90;;;3.30;82.60;;;6.03;58.60;99758.09;5102905;28;20623;-54
2023/03/08 04:04:55;;;;;;;6.80;5.93;;;3.30;82.60;;;6.04;57.99;99754.47;5111751;28;20257;-54
2023/03/08 04:07:23;;;;;;;9.10;7.80;;;3.30;82.70;;;6.02;58.04;99766.06;5107118;28;20758;-53
2023/03/08 04:09:50;;;;;;;9.73;7.17;;;3.30;82.30;;;5.96;58.42;99770.19;5114059;28;20192;-52
2023/03/08 04:12:17;;;;;;;8.50;6.73;;;3.30;82.20;;;5.98;57.68;99764.78;5113937;28;20195;-53
2023/03/08 04:14:44;;;;;;;9.90;8.13;;;3.30;82.30;;;5.94;57.97;99764.31;5114516;28;20568;-56
2023/03/08 04:17:12;;;;;;;10.77;8.10;;;3.30;82.50;;;5.81;58.40;99757.97;5116233;28;20193;-52
2023/03/08 04:19:39;;;;;;;8.10;7.03;;;3.20;82.30;;;5.81;58.27;99768.41;5116479;28;20299;-52
2023/03/08 04:22:06;;;;;;;9.87;7.40;;;3.20;82.20;;;5.86;58.92;99766.16;5116706;28;20193;-53
2023/03/08 04:24:34;;;;;;;9.77;7.07;;;3.20;82.40;;;5.86;58.27;99766.16;5115945;28;20291;-56
2023/03/08 04:27:01;;;;;;;10.90;7.47;;;3.20;82.60;;;5.87;59.27;99767.78;5113820;28;20212;-53
2023/03/08 04:29:28;;;;;;;9.70;6.97;;;3.20;82.80;;;5.93;58.20;99764.50;5113786;28;20195;-55
2023/03/08 04:31:58;;;;;;;11.37;8.23;;;3.20;83.30;;;5.88;58.16;99756.34;5114358;28;20201;-54
2023/03/08 04:34:26;;;;;;;9.07;7.30;;;3.20;82.80;;;5.85;58.94;99759.28;5113351;28;20211;-52
2023/03/08 04:36:53;;;;;;;9.63;7.80;;;3.20;82.50;;;5.86;59.11;99755.69;5094152;28;20207;-54
2023/03/08 04:39:20;;;;;;;8.53;7.27;;;3.20;82.60;;;5.73;59.20;99760.63;5093686;28;20202;-52
2023/03/08 04:41:48;;;;;;;8.83;7.20;;;3.20;82.30;;;5.75;58.77;99753.44;5096292;28;20553;-54
2023/03/08 04:44:16;;;;;;;10.57;7.77;;;3.20;82.10;;;5.76;58.31;99760.25;5096346;28;20217;-50
2023/03/08 04:46:42;;;;;;;10.83;7.90;;;3.20;82.30;;;5.79;58.73;99762.53;5113842;28;20213;-53
2023/03/08 04:49:09;;;;;;;10.90;7.03;;;3.10;82.50;;;5.79;58.55;99767.78;5117383;28;20193;-53
2023/03/08 04:51:36;;;;;;;10.93;7.80;;;3.10;82.40;;;5.76;58.95;99763.69;5118001;28;20249;-55
2023/03/08 04:54:03;;;;;;;10.27;7.40;;;3.10;82.70;;;5.73;57.97;99755.41;5117633;28;20221;-53
2023/03/08 04:56:30;;;;;;;11.73;7.63;;;3.10;82.50;;;5.75;59.21;99750.81;5101374;28;20555;-53
2023/03/08 04:58:59;;;;;;;11.07;8.17;;;3.10;82.70;;;5.77;58.72;99752.28;5108580;28;20218;-52
2023/03/08 05:01:26;;;;;;;9.50;6.57;;;3.10;83.40;;;5.83;58.72;99750.78;5117112;28;20693;-52
2023/03/08 05:03:54;;;;;;;9.63;7.47;;;3.10;82.90;;;5.89;59.04;99756.19;5116248;28;20695;-53
2023/03/08 05:06:23;;;;;;;8.37;7.27;;;3.10;83.20;;;5.95;58.57;99749.47;5101942;28;20216;-52
2023/03/08 05:08:51;;;;;;;10.77;8.10;;;3.20;84.00;;;6.00;57.72;99741.94;5096663;28;20229;-52
2023/03/08 05:11:22;;;;;;;14.53;9.43;;;3.20;83.20;;;5.99;57.86;99740.31;5096634;28;20193;-52
2023/03/08 05:13:49;;;;;;;10.77;8.30;;;3.20;82.70;;;6.03;59.24;99736.38;5106330;28;20215;-53
2023/03/08 05:16:18;;;;;;;9.03;8.07;;;3.30;83.10;;;6.08;58.69;99736.69;5114514;28;20196;-55
2023/03/08 05:18:45;;;;;;;9.53;8.37;;;3.40;82.80;;;6.04;57.79;99723.16;5096070;28;20198;-53
2023/03/08 05:21:15;;;;;;;9.03;8.07;;;3.30;81.90;;;6.05;57.84;99729.19;5095948;28;20684;-53
2023/03/08 05:23:42;;;;;;;10.90;8.23;;;3.40;82.00;;;6.01;58.38;99725.28;5095983;28;20216;-53
2023/03/08 05:26:13;;;;;;;10.37;7.27;;;3.40;81.60;;;5.97;57.54;99731.81;5107370;28;20205;-54
2023/03/08 05:28:40;;;;;;;10.23;8.43;;;3.30;81.40;;;5.92;57.10;99734.16;5099860;28;20630;-54
2023/03/08 05:31:11;;;;;;;9.40;8.37;;;3.30;81.40;;;5.92;57.99;99728.94;5095946;28;20511;-54
2023/03/08 05:33:42;;;;;;;12.57;8.40;;;3.30;82.00;;;5.92;57.88;99729.72;5094289;28;20220;-52
2023/03/08 05:36:10;;;;;;;11.07;8.33;;;3.30;82.00;;;5.98;58.11;99730.84;5106948;28;20212;-53
2023/03/08 05:38:37;;;;;;;11.53;9.40;;;3.30;82.20;;;5.98;58.18;99731.66;5116817;28;20206;-52
2023/03/08 05:41:07;;;;;;;15.27;9.40;;;3.20;81.90;;;5.89;58.36;99726.66;5115711;28;20194;-55
2023/03/08 05:43:35;;;;;;;10.10;8.93;;;3.20;81.60;;;5.87;58.50;99726.00;5115719;28;20672;-52
2023/03/08 05:46:04;;;;;;;11.23;9.33;;;3.20;81.80;;;5.89;58.98;99729.25;5115743;28;20661;-53
2023/03/08 05:48:34;;;;;;;11.43;9.67;;;3.20;82.60;;;6.01;58.10;99727.91;5116122;28;20179;-51
2023/03/08 05:51:06;;;;;;;11.60;8.40;;;3.20;82.90;;;6.10;58.13;99724.28;5115915;28;20556;-53
2023/03/08 05:53:33;;;;;;;11.33;8.63;;;3.30;82.90;;;6.20;57.65;99722.25;5115516;28;20208;-54
2023/03/08 05:56:08;;;;;;;12.23;8.87;;;3.40;82.70;;;6.22;57.74;99717.69;5097722;28;20197;-54
2023/03/08 05:58:35;;;;;;;8.37;6.90;;;3.40;82.00;;;6.21;56.95;99713.44;5095831;28;20197;-52
2023/03/08 06:01:13;;;;;;;9.60;8.33;;;3.40;81.60;;;6.14;57.01;99702.84;5095830;28;20212;-54
2023/03/08 06:03:41;;;;;;;9.97;8.50;;;3.40;81.20;;;6.04;57.46;99707.47;5094951;28;20289;-53
2023/03/08 06:06:09;;;;;;;11.60;9.07;;;3.30;80.90;;;5.88;57.14;99714.56;5103861;28;20189;-53
2023/03/08 06:08:36;;;;;;;12.17;9.00;;;3.30;81.10;;;5.78;57.80;99708.69;5111040;28;20532;-56
2023/03/08 06:11:04;;;;;;;11.03;8.37;;;3.20;81.00;;;5.72;58.58;99706.78;5095832;28;20667;-53
2023/03/08 06:13:32;;;;;;;10.97;9.27;;;3.20;81.60;;;5.68;57.71;99700.28;5103058;28;20212;-53
2023/03/08 06:16:00;;;;;;;10.90;8.33;;;3.10;81.60;;;5.67;58.81;99702.06;5106278;28;20205;-54
2023/03/08 06:18:29;;;;;;;11.87;9.50;;;3.10;81.80;;;5.65;58.30;99705.81;5095752;28;20210;-53
2023/03/08 06:21:02;;;;;;;10.23;8.67;;;3.00;82.20;;;5.68;59.42;99701.06;5095070;28;20550;-53
2023/03/08 06:23:33;;;;;;;12.73;9.10;;;3.00;82.90;;;5.76;58.98;99692.41;5111875;28;20672;-54
2023/03/08 06:26:01;;;;;;;12.23;9.67;;;3.00;83.30;;;5.76;58.46;99702.84;5115528;28;20176;-55
2023/03/08 06:28:28;;;;;;;13.00;10.00;;;3.10;82.70;;;5.73;58.95;99711.03;5115386;28;20190;-53
2023/03/08 06:30:55;;;;;;;12.53;9.03;;;3.10;82.40;;;5.66;59.33;99708.25;5115698;28;20204;-56
2023/03/08 06:33:26;;;;;;;13.80;10.30;;;3.10;82.40;;;5.69;59.24;99707.09;5115050;28;20209;-53
2023/03/08 06:35:58;;;;;;;12.47;10.13;;;3.10;82.70;;;5.70;58.55;99716.56;5115083;28;20196;-55
2023/03/08 06:38:29;;;;;;;15.53;9.87;;;3.10;82.60;;;5.70;58.85;99712.19;5115339;28;20180;-53
2023/03/08 06:41:01;;;;;;;14.97;9.67;;;3.10;82.70;;;5.71;59.08;99711.19;5115697;28;20200;-54
2023/03/08 06:43:28;;;;;;;12.27;9.90;;;3.00;82.50;;;5.71;58.45;99705.97;5102619;28;20210;-52
2023/03/08 06:45:55;;;;;;;11.43;8.93;;;3.00;82.70;;;5.68;58.80;99710.72;5095248;28;20185;-53
2023/03/08 06:48:23;;;;;;;14.30;10.53;;;3.00;82.90;;;5.61;59.47;99712.38;5095048;28;20243;-54
2023/03/08 06:50:50;;;;;;;11.77;9.20;;;3.00;83.00;;;5.54;59.32;99709.59;5098993;28;20224;-53
2023/03/08 06:53:17;;;;;;;12.20;9.77;;;3.00;83.10;;;5.56;58.86;99701.63;5105312;28;20710;-52
2023/03/08 06:55:44;;;;;;;12.53;9.43;;;3.00;83.30;;;5.51;59.24;99694.28;5095119;28;20203;-53
2023/03/08 06:58:13;;;;;;;13.70;9.53;;;2.90;83.20;;;5.58;59.10;99695.25;5093299;28;20276;-57
2023/03/08 07:00:40;;;;;;;14.60;9.20;;;3.00;83.30;;;5.63;59.36;99686.91;5094701;28;20273;-53
2023/03/08 07:03:07;;;;;;;14.63;10.67;;;3.00;83.20;;;5.67;59.47;99696.03;5093986;28;20231;-52
2023/03/08 07:05:34;;;;;;;11.90;9.17;;;3.00;83.50;;;5.72;59.71;99691.13;5093132;28;20195;-53
2023/03/08 07:08:01;;;;;;;10.40;8.77;;;3.00;83.60;;;5.79;59.34;99686.84;5095441;28;20685;-54
2023/03/08 07:10:28;;;;;;;13.23;11.17;;;3.00;83.50;;;5.85;58.30;99673.13;5115017;28;20192;-54
2023/03/08 07:12:55;;;;;;;12.33;9.03;;;3.00;83.60;;;5.86;58.08;99672.16;5113785;28;20258;-53
2023/03/08 07:15:24;;;;;;;14.43;9.90;;;3.10;83.50;;;5.73;58.75;99685.72;5098399;28;20196;-53
2023/03/08 07:17:57;;;;;;;14.20;9.87;;;3.10;83.70;;;5.76;58.46;99677.56;5094506;28;20178;-53
2023/03/08 07:20:26;;;;;;;12.53;9.87;;;3.10;83.10;;;5.78;59.46;99682.59;5094467;28;20273;-56
2023/03/08 07:22:53;;;;;;;12.83;9.67;;;3.20;83.20;;;5.83;58.42;99688.13;5094585;28;20235;-53
2023/03/08 07:25:21;;;;;;;12.60;9.10;;;3.20;83.00;;;5.87;58.44;99689.47;5095257;28;20202;-57
2023/03/08 07:27:48;;;;;;;16.37;9.57;;;3.20;82.90;;;5.95;59.38;99681.56;5093387;28;20211;-51
2023/03/08 07:30:16;;;;;;;10.47;8.23;;;3.20;82.90;;;6.08;58.33;99687.06;5094620;28;20216;-54
2023/03/08 07:32:44;;;;;;;11.23;9.23;;;3.30;83.20;;;6.14;58.24;99684.56;5093399;28;20231;-55
2023/03/08 07:35:14;;;;;;;10.63;8.70;;;3.40;83.20;;;6.25;58.78;99686.00;5105515;28;20272;-56
2023/03/08 07:37:44;;;;;;;13.57;10.33;;;3.40;83.10;;;6.30;58.19;99686.25;5114482;28;20234;-54
2023/03/08 07:40:13;;;;;;;10.97;8.93;;;3.50;83.00;;;6.36;57.94;99685.59;5114683;28;20617;-54
2023/03/08 07:42:41;;;;;;;13.53;11.03;;;3.50;82.80;;;6.38;58.09;99683.59;5112759;28;20590;-53
2023/03/08 07:45:11;;;;;;;13.80;11.23;;;3.60;82.50;;;6.39;57.26;99685.25;5093882;27;20287;-54
2023/03/08 07:47:39;;;;;;;13.50;10.10;;;3.60;82.20;;;6.42;58.12;99684.88;5105361;28;20219;-53
2023/03/08 07:50:10;;;;;;;16.97;11.23;;;3.60;81.90;;;6.48;57.46;99689.44;5114348;28;20185;-53
2023/03/08 07:52:37;;;;;;;13.37;10.57;;;3.60;81.70;;;6.50;57.80;99684.84;5112658;28;20193;-55
2023/03/08 07:55:06;;;;;;;12.47;10.10;;;3.70;81.90;;;6.69;57.26;99692.19;5093692;28;20278;-54
2023/03/08 07:57:33;;;;;;;16.40;10.03;;;3.70;82.20;;;6.76;57.25;99690.50;5093547;28;20254;-53
2023/03/08 08:00:00;;;;;;;11.83;10.27;;;3.80;81.70;;;6.69;56.14;99686.16;5093717;28;20625;-52
2023/03/08 08:02:27;;;;;;;13.60;10.87;;;3.80;80.80;;;6.63;56.07;99690.28;5093632;28;20192;-56
2023/03/08 08:04:54;;;;;;;13.10;9.60;;;3.80;80.50;;;6.43;56.25;99696.97;5113532;28;20683;-53
2023/03/08 08:07:22;;;;;;;15.33;11.20;;;3.80;80.40;;;6.41;57.75;99695.50;5113683;28;20200;-53
2023/03/08 08:09:49;;;;;;;16.60;10.50;;;3.80;80.80;;;6.46;56.71;99701.84;5114178;28;20204;-54
2023/03/08 08:12:16;;;;;;;13.57;10.53;;;3.80;81.00;;;6.64;57.62;99691.09;5113898;28;20182;-52
2023/03/08 08:14:44;;;;;;;11.43;9.10;;;3.90;81.20;;;6.83;57.41;99693.22;5106994;28;20210;-53
2023/03/08 08:17:11;;;;;;;12.37;8.80;;;3.90;81.10;;;7.02;56.21;99697.16;5111715;27;20228;-52
2023/03/08 08:19:38;;;;;;;12.77;9.13;;;4.00;81.10;;;7.01;55.95;99695.53;5111627;28;20303;-53
2023/03/08 08:22:05;;;;;;;12.70;10.30;;;4.00;80.10;;;7.00;55.06;99699.13;5118274;28;20230;-54
2023/03/08 08:24:34;;;;;;;15.17;10.63;;;4.10;79.80;;;7.05;55.25;99696.78;5113984;28;20594;-52
2023/03/08 08:27:01;;;;;;;16.53;10.33;;;4.20;79.90;;;7.02;55.49;99697.16;5113149;28;20213;-53
2023/03/08 08:29:28;;;;;;;13.53;9.73;;;4.20;79.40;;;7.00;55.30;99706.97;5118339;28;20577;-55
2023/03/08 08:31:56;;;;;;;12.73;10.40;;;4.20;79.40;;;7.04;55.56;99709.06;5118884;27;20194;-54
2023/03/08 08:34:23;;;;;;;15.63;10.37;;;4.20;79.30;;;6.92;55.21;99707.06;5115530;28;20227;-53
2023/03/08 08:36:50;;;;;;;13.23;9.53;;;4.10;78.50;;;6.90;55.25;99706.41;5118637;28;20286;-53
2023/03/08 08:39:17;;;;;;;11.60;9.70;;;4.10;78.70;;;6.93;55.22;99704.25;5117711;28;20205;-53
2023/03/08 08:41:47;;;;;;;11.67;9.70;;;4.20;78.90;;;6.98;55.09;99701.13;5104896;28;20193;-53
2023/03/08 08:44:14;;;;;;;13.93;9.20;;;4.10;79.10;;;7.08;55.04;99702.50;5115753;28;20223;-51
2023/03/08 08:46:41;;;;;;;12.70;10.17;;;4.20;79.50;;;7.13;55.20;99700.13;5113760;28;20575;-53
2023/03/08 08:49:09;;;;;;;15.40;10.00;;;4.20;79.30;;;7.15;55.16;99697.38;5108312;28;20198;-53
2023/03/08 08:51:36;;;;;;;13.63;10.13;;;4.30;79.30;;;7.23;54.93;99700.69;5104864;28;20201;-54
2023/03/08 08:54:03;;;;;;;16.47;9.60;;;4.30;79.30;;;7.34;55.44;99691.63;5106329;27;20230;-54
2023/03/08 08:56:30;;;;;;;16.87;12.97;;;4.40;79.60;;;7.51;55.21;99685.22;5112956;27;20198;-54
2023/03/08 08:59:02;;;;;;;13.90;11.30;;;4.40;79.60;;;7.81;54.77;99689.44;5106380;27;20199;-54
2023/03/08 09:01:32;;;;;;;12.73;9.90;;;4.60;80.20;;;8.04;53.80;99684.03;5105680;28;20207;-55
2023/03/08 09:03:59;;;;;;;14.50;9.87;;;4.70;79.40;;;8.27;53.56;99681.31;5098604;27;20218;-53
2023/03/08 09:06:28;;;;;;;14.00;9.40;;;4.80;79.30;;;8.49;53.29;99680.31;5116289;27;20679;-53
2023/03/08 09:08:57;;;;;;;13.03;9.40;;;5.00;79.10;;;8.77;52.80;99681.22;5112964;27;20217;-54
2023/03/08 09:11:27;;;;;;;11.67;9.30;;;5.20;78.60;;;8.93;51.88;99675.69;5110978;27;20252;-55
2023/03/08 09:13:55;;;;;;;14.00;9.70;;;5.40;77.50;;;9.11;51.90;99680.44;5118259;27;20227;-57
2023/03/08 09:16:26;;;;;;;10.30;7.60;;;5.60;76.80;;;9.29;51.71;99671.09;5132110;27;20218;-55
2023/03/08 09:18:55;;;;;;;14.30;12.63;;;5.80;77.00;;;9.48;50.49;99665.13;5117168;27;20214;-52
2023/03/08 09:21:23;;;;;;;12.60;9.50;;;5.90;76.10;;;9.60;49.83;99675.09;5131771;27;20271;-54
2023/03/08 09:23:50;;;;;;;11.93;8.90;;;6.10;74.90;;;9.77;49.87;99671.16;5114784;27;20295;-53
2023/03/08 09:26:18;;;;;;;12.63;9.00;;;6.20;74.10;;;9.79;48.87;99663.88;5113113;27;20296;-55
2023/03/08 09:28:45;;;;;;;41.80;26.23;;;6.30;72.70;;;9.86;49.20;99662.09;5109418;27;20199;-54
2023/03/08 09:31:15;;;;;;;12.53;9.87;;;6.40;73.20;;;9.87;48.42;99658.44;5105844;27;20597;-54
2023/03/08 09:33:48;;;;;;;11.43;8.97;;;6.50;71.40;;;9.67;47.94;99663.63;5113615;27;20245;-52
2023/03/08 09:36:15;;;;;;;12.10;9.17;;;6.50;70.70;;;9.63;48.34;99651.09;5103982;27;20260;-52
2023/03/08 09:38:42;;;;;;;11.57;7.97;;;6.50;71.10;;;9.59;48.33;99647.19;5109490;27;20208;-53
2023/03/08 09:41:30;;;;;;;10.20;8.27;;;6.50;71.20;;;9.62;48.66;99644.19;5108501;28;20215;-54
2023/03/08 09:44:25;;;;;;;10.83;8.53;;;6.40;70.90;;;9.64;48.65;99655.31;5106465;28;20214;-53
2023/03/08 09:47:02;;;;;;;11.90;9.33;;;6.40;71.40;;;9.63;48.28;99651.88;5102315;28;20223;-53
2023/03/08 09:49:35;;;;;;;11.70;9.80;;;6.40;71.10;;;9.60;48.34;99636.53;5101436;28;20250;-54
2023/03/08 09:52:13;;;;;;;10.80;9.23;;;6.40;71.10;;;9.62;48.84;99633.69;5105582;28;20188;-54
2023/03/08 09:54:41;;;;;;;11.83;9.47;;;6.50;71.50;;;9.59;48.13;99626.19;5108058;27;20719;-55
2023/03/08 09:57:17;;;;;;;12.37;8.90;;;6.50;70.90;;;9.72;48.43;99623.63;5108365;27;21707;-53
2023/03/08 09:59:52;;;;;;;10.67;9.17;;;6.50;71.30;;;10.22;48.68;99625.03;5113580;27;20573;-56
2023/03/08 10:02:32;;;;;;;12.17;8.40;;;6.60;72.50;;;10.95;47.61;99613.50;5112060;27;20198;-53
2023/03/08 10:05:09;;;;;;;11.80;9.40;;;6.90;72.80;;;11.84;45.85;99610.00;5115737;27;20426;-56
2023/03/08 10:07:55;;;;;;;9.23;8.20;;;7.30;71.70;;;12.40;45.12;99604.00;5117599;27;20215;-53
2023/03/08 10:10:38;;;;;;;11.60;8.00;;;7.70;69.80;;;12.90;43.55;99602.97;5119423;27;20189;-52
2023/03/08 10:13:26;;;;;;;10.53;9.27;;;8.10;68.30;;;13.45;42.03;99612.56;5125502;27;20719;-53
2023/03/08 10:16:04;;;;;;;11.90;9.00;;;8.60;66.50;;;13.71;40.90;99605.38;5119185;27;20206;-53
2023/03/08 10:18:40;;;;;;;9.03;8.13;;;8.90;64.40;;;13.80;40.83;99599.53;5111107;27;20823;-53
2023/03/08 10:21:16;;;;;;;12.00;8.77;;;9.30;64.20;;;13.78;40.58;99596.31;5104125;27;20207;-52
2023/03/08 10:23:47;;;;;;;9.47;8.40;;;9.40;62.80;;;13.69;40.30;99586.28;5105521;27;20200;-53
2023/03/08 10:26:16;;;;;;;18.67;12.73;;;9.50;61.20;;;13.60;40.27;99588.41;5113626;27;20196;-55
2023/03/08 10:28:44;;;;;;;11.17;8.67;;;9.60;61.40;;;13.49;39.84;99592.63;5122683;27;20251;-53
2023/03/08 10:31:25;;;;;;;9.53;8.13;;;9.50;60.20;;;13.16;40.22;99597.47;5109063;27;20199;-53
2023/03/08 10:34:02;;;;;;;9.60;7.73;;;9.50;59.80;;;12.93;40.07;99597.25;5101029;28;20586;-57
2023/03/08 10:36:31;;;;;;;9.00;8.10;;;9.40;59.70;;;12.82;40.60;99590.03;5106262;28;20615;-53